sensor_id;sensor_type;location;lat;lon;timestamp;P1;durP1;ratioP1;P2;durP2;ratioP2
7255;SDS011;3669;49.200;9.242;2023-07-02T00:00:54;2.63;;;2.42;;
7255;SDS011;3669;49.200;9.242;2023-07-02T00:03:21;2.40;;;2.20;;
7255;SDS011;3669;49.200;9.242;2023-07-02T00:05:50;2.75;;;2.50;;
7255;SDS011;3669;49.200;9.242;2023-07-02T00:08:21;2.50;;;2.30;;
7255;SDS011;3669;49.200;9.242;2023-07-02T00:10:48;2.45;;;2.25;;
7255;SDS011;3669;49.200;9.242;2023-07-02T00:13:15;5.13;;;2.35;;
7255;SDS011;3669;49.200;9.242;2023-07-02T00:15:43;2.58;;;2.38;;
7255;SDS011;3669;49.200;9.242;2023-07-02T00:18:10;3.08;;;2.05;;
7255;SDS011;3669;49.200;9.242;2023-07-02T00:20:37;2.70;;;2.50;;
7255;SDS011;3669;49.200;9.242;2023-07-02T00:23:07;3.47;;;2.30;;
7255;SDS011;3669;49.200;9.242;2023-07-02T00:25:38;2.67;;;2.38;;
7255;SDS011;3669;49.200;9.242;2023-07-02T00:28:05;2.40;;;2.20;;
7255;SDS011;3669;49.200;9.242;2023-07-02T00:30:32;2.55;;;2.30;;
7255;SDS011;3669;49.200;9.242;2023-07-02T00:32:59;2.70;;;2.50;;
7255;SDS011;3669;49.200;9.242;2023-07-02T00:35:26;2.60;;;2.40;;
7255;SDS011;3669;49.200;9.242;2023-07-02T00:37:53;2.50;;;2.30;;
7255;SDS011;3669;49.200;9.242;2023-07-02T00:40:20;2.60;;;2.40;;
7255;SDS011;3669;49.200;9.242;2023-07-02T00:42:47;2.70;;;2.50;;
7255;SDS011;3669;49.200;9.242;2023-07-02T00:45:14;2.75;;;2.38;;
7255;SDS011;3669;49.200;9.242;2023-07-02T00:47:41;2.40;;;2.20;;
7255;SDS011;3669;49.200;9.242;2023-07-02T00:50:09;2.22;;;2.08;;
7255;SDS011;3669;49.200;9.242;2023-07-02T00:52:36;2.47;;;2.28;;
7255;SDS011;3669;49.200;9.242;2023-07-02T00:55:03;4.25;;;3.95;;
7255;SDS011;3669;49.200;9.242;2023-07-02T00:57:30;11.55;;;10.98;;
7255;SDS011;3669;49.200;9.242;2023-07-02T00:59:57;12.32;;;11.80;;
7255;SDS011;3669;49.200;9.242;2023-07-02T01:02:28;19.85;;;18.95;;
7255;SDS011;3669;49.200;9.242;2023-07-02T01:04:55;29.02;;;27.73;;
7255;SDS011;3669;49.200;9.242;2023-07-02T01:07:24;14.80;;;14.15;;
7255;SDS011;3669;49.200;9.242;2023-07-02T01:09:51;7.30;;;6.95;;
7255;SDS011;3669;49.200;9.242;2023-07-02T01:12:17;4.05;;;3.78;;
7255;SDS011;3669;49.200;9.242;2023-07-02T01:14:51;2.50;;;2.30;;
7255;SDS011;3669;49.200;9.242;2023-07-02T01:17:19;2.55;;;2.20;;
7255;SDS011;3669;49.200;9.242;2023-07-02T01:19:50;2.63;;;2.42;;
7255;SDS011;3669;49.200;9.242;2023-07-02T01:22:23;2.45;;;2.17;;
7255;SDS011;3669;49.200;9.242;2023-07-02T01:24:51;2.65;;;2.30;;
7255;SDS011;3669;49.200;9.242;2023-07-02T01:27:18;4.10;;;2.75;;
7255;SDS011;3669;49.200;9.242;2023-07-02T01:29:45;2.40;;;2.20;;
7255;SDS011;3669;49.200;9.242;2023-07-02T01:32:13;2.67;;;2.40;;
7255;SDS011;3669;49.200;9.242;2023-07-02T01:34:40;3.05;;;2.22;;
7255;SDS011;3669;49.200;9.242;2023-07-02T01:37:09;10.45;;;9.93;;
7255;SDS011;3669;49.200;9.242;2023-07-02T01:39:39;2.72;;;2.53;;
7255;SDS011;3669;49.200;9.242;2023-07-02T01:44:36;3.00;;;2.38;;
7255;SDS011;3669;49.200;9.242;2023-07-02T01:47:04;2.58;;;2.38;;
7255;SDS011;3669;49.200;9.242;2023-07-02T01:49:31;2.88;;;2.65;;
7255;SDS011;3669;49.200;9.242;2023-07-02T01:51:58;2.33;;;2.20;;
7255;SDS011;3669;49.200;9.242;2023-07-02T01:54:26;3.28;;;2.53;;
7255;SDS011;3669;49.200;9.242;2023-07-02T01:56:54;3.03;;;2.70;;
7255;SDS011;3669;49.200;9.242;2023-07-02T01:59:21;3.03;;;2.58;;
7255;SDS011;3669;49.200;9.242;2023-07-02T02:01:48;3.00;;;2.42;;
7255;SDS011;3669;49.200;9.242;2023-07-02T02:04:16;2.47;;;2.28;;
7255;SDS011;3669;49.200;9.242;2023-07-02T02:06:43;2.40;;;2.20;;
7255;SDS011;3669;49.200;9.242;2023-07-02T02:09:10;2.70;;;2.50;;
7255;SDS011;3669;49.200;9.242;2023-07-02T02:11:42;2.85;;;2.55;;
7255;SDS011;3669;49.200;9.242;2023-07-02T02:14:09;2.67;;;2.45;;
7255;SDS011;3669;49.200;9.242;2023-07-02T02:16:36;3.58;;;2.45;;
7255;SDS011;3669;49.200;9.242;2023-07-02T02:19:03;2.60;;;2.40;;
7255;SDS011;3669;49.200;9.242;2023-07-02T02:21:31;2.67;;;2.30;;
7255;SDS011;3669;49.200;9.242;2023-07-02T02:23:58;2.42;;;2.22;;
7255;SDS011;3669;49.200;9.242;2023-07-02T02:26:25;3.78;;;2.50;;
7255;SDS011;3669;49.200;9.242;2023-07-02T02:28:52;2.42;;;2.20;;
7255;SDS011;3669;49.200;9.242;2023-07-02T02:31:19;2.40;;;2.10;;
7255;SDS011;3669;49.200;9.242;2023-07-02T02:33:46;3.67;;;2.58;;
7255;SDS011;3669;49.200;9.242;2023-07-02T02:36:14;3.88;;;2.50;;
7255;SDS011;3669;49.200;9.242;2023-07-02T02:38:41;2.85;;;2.38;;
7255;SDS011;3669;49.200;9.242;2023-07-02T02:41:08;6.43;;;2.50;;
7255;SDS011;3669;49.200;9.242;2023-07-02T02:43:35;3.80;;;2.60;;
7255;SDS011;3669;49.200;9.242;2023-07-02T02:46:03;2.92;;;2.28;;
7255;SDS011;3669;49.200;9.242;2023-07-02T02:48:30;3.00;;;2.30;;
7255;SDS011;3669;49.200;9.242;2023-07-02T02:50:57;2.70;;;2.50;;
7255;SDS011;3669;49.200;9.242;2023-07-02T02:53:25;2.85;;;2.60;;
7255;SDS011;3669;49.200;9.242;2023-07-02T02:55:52;3.30;;;2.60;;
7255;SDS011;3669;49.200;9.242;2023-07-02T02:58:19;3.55;;;2.85;;
7255;SDS011;3669;49.200;9.242;2023-07-02T03:00:46;3.30;;;2.53;;
7255;SDS011;3669;49.200;9.242;2023-07-02T03:05:42;3.47;;;2.80;;
7255;SDS011;3669;49.200;9.242;2023-07-02T03:08:10;3.30;;;2.90;;
7255;SDS011;3669;49.200;9.242;2023-07-02T03:10:37;6.55;;;6.00;;
7255;SDS011;3669;49.200;9.242;2023-07-02T03:13:04;9.70;;;9.10;;
7255;SDS011;3669;49.200;9.242;2023-07-02T03:15:31;28.30;;;26.75;;
7255;SDS011;3669;49.200;9.242;2023-07-02T03:17:58;19.00;;;17.90;;
7255;SDS011;3669;49.200;9.242;2023-07-02T03:20:25;27.92;;;26.45;;
7255;SDS011;3669;49.200;9.242;2023-07-02T03:22:52;13.35;;;12.57;;
7255;SDS011;3669;49.200;9.242;2023-07-02T03:25:19;9.05;;;8.43;;
7255;SDS011;3669;49.200;9.242;2023-07-02T03:27:45;4.90;;;3.88;;
7255;SDS011;3669;49.200;9.242;2023-07-02T03:30:12;5.35;;;3.63;;
7255;SDS011;3669;49.200;9.242;2023-07-02T03:32:40;4.72;;;3.63;;
7255;SDS011;3669;49.200;9.242;2023-07-02T03:35:07;4.18;;;3.30;;
7255;SDS011;3669;49.200;9.242;2023-07-02T03:37:34;3.60;;;3.30;;
7255;SDS011;3669;49.200;9.242;2023-07-02T03:40:01;4.80;;;4.28;;
7255;SDS011;3669;49.200;9.242;2023-07-02T03:42:28;4.85;;;3.50;;
7255;SDS011;3669;49.200;9.242;2023-07-02T03:44:56;6.85;;;3.45;;
7255;SDS011;3669;49.200;9.242;2023-07-02T03:47:23;5.60;;;3.92;;
7255;SDS011;3669;49.200;9.242;2023-07-02T03:49:50;3.85;;;3.42;;
7255;SDS011;3669;49.200;9.242;2023-07-02T03:52:17;4.50;;;3.63;;
7255;SDS011;3669;49.200;9.242;2023-07-02T03:54:44;3.90;;;3.42;;
7255;SDS011;3669;49.200;9.242;2023-07-02T03:57:11;4.43;;;3.70;;
7255;SDS011;3669;49.200;9.242;2023-07-02T03:59:38;4.85;;;3.70;;
7255;SDS011;3669;49.200;9.242;2023-07-02T04:02:06;5.55;;;3.92;;
7255;SDS011;3669;49.200;9.242;2023-07-02T04:04:33;4.82;;;4.13;;
7255;SDS011;3669;49.200;9.242;2023-07-02T04:07:00;5.07;;;3.83;;
7255;SDS011;3669;49.200;9.242;2023-07-02T04:09:27;4.07;;;3.50;;
7255;SDS011;3669;49.200;9.242;2023-07-02T04:11:54;5.10;;;3.97;;
7255;SDS011;3669;49.200;9.242;2023-07-02T04:14:21;5.07;;;4.15;;
7255;SDS011;3669;49.200;9.242;2023-07-02T04:16:48;4.38;;;3.90;;
7255;SDS011;3669;49.200;9.242;2023-07-02T04:19:15;4.75;;;3.92;;
7255;SDS011;3669;49.200;9.242;2023-07-02T04:21:42;4.70;;;3.70;;
7255;SDS011;3669;49.200;9.242;2023-07-02T04:24:10;4.10;;;3.70;;
7255;SDS011;3669;49.200;9.242;2023-07-02T04:26:37;4.90;;;3.80;;
7255;SDS011;3669;49.200;9.242;2023-07-02T04:29:12;4.13;;;3.70;;
7255;SDS011;3669;49.200;9.242;2023-07-02T04:31:39;4.60;;;3.83;;
7255;SDS011;3669;49.200;9.242;2023-07-02T04:34:06;4.63;;;3.88;;
7255;SDS011;3669;49.200;9.242;2023-07-02T04:36:33;5.05;;;3.72;;
7255;SDS011;3669;49.200;9.242;2023-07-02T04:39:00;4.38;;;3.70;;
7255;SDS011;3669;49.200;9.242;2023-07-02T04:41:27;5.22;;;4.03;;
7255;SDS011;3669;49.200;9.242;2023-07-02T04:43:55;5.00;;;3.90;;
7255;SDS011;3669;49.200;9.242;2023-07-02T04:46:22;4.40;;;3.85;;
7255;SDS011;3669;49.200;9.242;2023-07-02T04:48:50;4.18;;;3.53;;
7255;SDS011;3669;49.200;9.242;2023-07-02T04:51:17;6.18;;;4.15;;
7255;SDS011;3669;49.200;9.242;2023-07-02T04:53:44;4.60;;;3.88;;
7255;SDS011;3669;49.200;9.242;2023-07-02T04:56:11;5.47;;;3.92;;
7255;SDS011;3669;49.200;9.242;2023-07-02T04:58:38;4.13;;;3.72;;
7255;SDS011;3669;49.200;9.242;2023-07-02T05:01:05;5.30;;;4.18;;
7255;SDS011;3669;49.200;9.242;2023-07-02T05:03:32;5.50;;;3.90;;
7255;SDS011;3669;49.200;9.242;2023-07-02T05:06:00;5.00;;;3.90;;
7255;SDS011;3669;49.200;9.242;2023-07-02T05:08:27;5.88;;;4.15;;
7255;SDS011;3669;49.200;9.242;2023-07-02T05:10:54;5.07;;;3.78;;
7255;SDS011;3669;49.200;9.242;2023-07-02T05:13:21;5.50;;;4.30;;
7255;SDS011;3669;49.200;9.242;2023-07-02T05:15:48;5.03;;;4.47;;
7255;SDS011;3669;49.200;9.242;2023-07-02T05:18:15;5.03;;;4.40;;
7255;SDS011;3669;49.200;9.242;2023-07-02T05:20:42;5.78;;;4.13;;
7255;SDS011;3669;49.200;9.242;2023-07-02T05:23:09;14.75;;;13.85;;
7255;SDS011;3669;49.200;9.242;2023-07-02T05:25:36;21.10;;;19.95;;
7255;SDS011;3669;49.200;9.242;2023-07-02T05:28:03;24.95;;;23.40;;
7255;SDS011;3669;49.200;9.242;2023-07-02T05:30:30;20.85;;;19.83;;
7255;SDS011;3669;49.200;9.242;2023-07-02T05:32:57;22.70;;;21.35;;
7255;SDS011;3669;49.200;9.242;2023-07-02T05:35:24;21.17;;;19.90;;
7255;SDS011;3669;49.200;9.242;2023-07-02T05:37:50;12.80;;;11.98;;
7255;SDS011;3669;49.200;9.242;2023-07-02T05:40:17;5.03;;;4.30;;
7255;SDS011;3669;49.200;9.242;2023-07-02T05:42:44;5.57;;;4.40;;
7255;SDS011;3669;49.200;9.242;2023-07-02T05:45:11;5.32;;;4.68;;
7255;SDS011;3669;49.200;9.242;2023-07-02T05:47:38;5.05;;;3.97;;
7255;SDS011;3669;49.200;9.242;2023-07-02T05:50:05;4.45;;;4.05;;
7255;SDS011;3669;49.200;9.242;2023-07-02T05:52:33;5.32;;;4.32;;
7255;SDS011;3669;49.200;9.242;2023-07-02T05:55:00;5.88;;;4.35;;
7255;SDS011;3669;49.200;9.242;2023-07-02T05:57:27;4.95;;;4.10;;
7255;SDS011;3669;49.200;9.242;2023-07-02T05:59:54;4.53;;;4.10;;
7255;SDS011;3669;49.200;9.242;2023-07-02T06:02:21;5.68;;;4.75;;
7255;SDS011;3669;49.200;9.242;2023-07-02T06:04:48;6.00;;;4.50;;
7255;SDS011;3669;49.200;9.242;2023-07-02T06:07:17;5.03;;;4.22;;
7255;SDS011;3669;49.200;9.242;2023-07-02T06:09:44;4.70;;;3.88;;
7255;SDS011;3669;49.200;9.242;2023-07-02T06:12:11;6.22;;;4.32;;
7255;SDS011;3669;49.200;9.242;2023-07-02T06:14:38;5.10;;;4.57;;
7255;SDS011;3669;49.200;9.242;2023-07-02T06:17:05;5.85;;;4.75;;
7255;SDS011;3669;49.200;9.242;2023-07-02T06:19:33;5.70;;;4.65;;
7255;SDS011;3669;49.200;9.242;2023-07-02T06:22:00;5.68;;;4.47;;
7255;SDS011;3669;49.200;9.242;2023-07-02T06:24:27;6.38;;;5.00;;
7255;SDS011;3669;49.200;9.242;2023-07-02T06:26:54;6.07;;;4.75;;
7255;SDS011;3669;49.200;9.242;2023-07-02T06:29:22;7.18;;;5.07;;
7255;SDS011;3669;49.200;9.242;2023-07-02T06:31:49;6.93;;;5.13;;
7255;SDS011;3669;49.200;9.242;2023-07-02T06:34:16;7.93;;;5.15;;
7255;SDS011;3669;49.200;9.242;2023-07-02T06:36:44;5.53;;;5.03;;
7255;SDS011;3669;49.200;9.242;2023-07-02T06:39:11;6.68;;;5.65;;
7255;SDS011;3669;49.200;9.242;2023-07-02T06:41:38;7.55;;;5.60;;
7255;SDS011;3669;49.200;9.242;2023-07-02T06:44:05;7.80;;;5.28;;
7255;SDS011;3669;49.200;9.242;2023-07-02T06:46:32;6.97;;;5.28;;
7255;SDS011;3669;49.200;9.242;2023-07-02T06:49:00;8.27;;;5.93;;
7255;SDS011;3669;49.200;9.242;2023-07-02T06:51:27;7.47;;;6.13;;
7255;SDS011;3669;49.200;9.242;2023-07-02T06:53:55;6.82;;;5.63;;
7255;SDS011;3669;49.200;9.242;2023-07-02T06:56:22;10.98;;;6.57;;
7255;SDS011;3669;49.200;9.242;2023-07-02T06:58:49;7.80;;;6.65;;
7255;SDS011;3669;49.200;9.242;2023-07-02T07:01:16;8.43;;;6.60;;
7255;SDS011;3669;49.200;9.242;2023-07-02T07:03:43;7.55;;;6.70;;
7255;SDS011;3669;49.200;9.242;2023-07-02T07:06:11;8.50;;;6.90;;
7255;SDS011;3669;49.200;9.242;2023-07-02T07:08:38;9.00;;;7.10;;
7255;SDS011;3669;49.200;9.242;2023-07-02T07:11:05;9.18;;;7.15;;
7255;SDS011;3669;49.200;9.242;2023-07-02T07:13:32;8.77;;;7.47;;
7255;SDS011;3669;49.200;9.242;2023-07-02T07:15:59;7.97;;;7.18;;
7255;SDS011;3669;49.200;9.242;2023-07-02T07:18:26;9.13;;;8.10;;
7255;SDS011;3669;49.200;9.242;2023-07-02T07:20:53;8.43;;;7.60;;
7255;SDS011;3669;49.200;9.242;2023-07-02T07:23:21;9.27;;;8.35;;
7255;SDS011;3669;49.200;9.242;2023-07-02T07:25:48;11.52;;;8.60;;
7255;SDS011;3669;49.200;9.242;2023-07-02T07:28:15;9.75;;;8.75;;
7255;SDS011;3669;49.200;9.242;2023-07-02T07:30:42;10.80;;;9.77;;
7255;SDS011;3669;49.200;9.242;2023-07-02T07:33:09;30.10;;;27.90;;
7255;SDS011;3669;49.200;9.242;2023-07-02T07:35:36;31.70;;;29.30;;
7255;SDS011;3669;49.200;9.242;2023-07-02T07:38:03;32.72;;;30.50;;
7255;SDS011;3669;49.200;9.242;2023-07-02T07:40:30;28.25;;;26.17;;
7255;SDS011;3669;49.200;9.242;2023-07-02T07:42:57;18.83;;;17.30;;
7255;SDS011;3669;49.200;9.242;2023-07-02T07:45:24;13.70;;;12.27;;
7255;SDS011;3669;49.200;9.242;2023-07-02T07:47:51;12.90;;;10.02;;
7255;SDS011;3669;49.200;9.242;2023-07-02T07:50:18;12.93;;;9.75;;
7255;SDS011;3669;49.200;9.242;2023-07-02T07:52:45;11.88;;;10.00;;
7255;SDS011;3669;49.200;9.242;2023-07-02T07:55:12;11.88;;;10.23;;
7255;SDS011;3669;49.200;9.242;2023-07-02T07:57:39;11.80;;;10.48;;
7255;SDS011;3669;49.200;9.242;2023-07-02T08:00:06;13.07;;;10.70;;
7255;SDS011;3669;49.200;9.242;2023-07-02T08:02:35;13.63;;;11.02;;
7255;SDS011;3669;49.200;9.242;2023-07-02T08:05:02;14.40;;;10.77;;
7255;SDS011;3669;49.200;9.242;2023-07-02T08:07:32;13.75;;;10.75;;
7255;SDS011;3669;49.200;9.242;2023-07-02T08:09:59;13.88;;;11.20;;
7255;SDS011;3669;49.200;9.242;2023-07-02T08:12:28;13.88;;;11.90;;
7255;SDS011;3669;49.200;9.242;2023-07-02T08:14:55;14.13;;;10.50;;
7255;SDS011;3669;49.200;9.242;2023-07-02T08:17:22;13.02;;;10.90;;
7255;SDS011;3669;49.200;9.242;2023-07-02T08:19:50;15.20;;;11.30;;
7255;SDS011;3669;49.200;9.242;2023-07-02T08:22:17;14.20;;;11.70;;
7255;SDS011;3669;49.200;9.242;2023-07-02T08:24:44;13.73;;;11.88;;
7255;SDS011;3669;49.200;9.242;2023-07-02T08:27:12;17.17;;;12.07;;
7255;SDS011;3669;49.200;9.242;2023-07-02T08:29:41;16.65;;;12.57;;
7255;SDS011;3669;49.200;9.242;2023-07-02T08:32:09;13.35;;;11.68;;
7255;SDS011;3669;49.200;9.242;2023-07-02T08:34:36;14.25;;;12.48;;
7255;SDS011;3669;49.200;9.242;2023-07-02T08:37:03;16.27;;;12.75;;
7255;SDS011;3669;49.200;9.242;2023-07-02T08:39:30;14.65;;;12.85;;
7255;SDS011;3669;49.200;9.242;2023-07-02T08:41:57;14.25;;;12.35;;
7255;SDS011;3669;49.200;9.242;2023-07-02T08:44:24;25.05;;;13.80;;
7255;SDS011;3669;49.200;9.242;2023-07-02T08:46:52;17.63;;;12.80;;
7255;SDS011;3669;49.200;9.242;2023-07-02T08:49:22;15.73;;;13.27;;
7255;SDS011;3669;49.200;9.242;2023-07-02T08:51:49;15.68;;;12.45;;
7255;SDS011;3669;49.200;9.242;2023-07-02T08:54:19;17.25;;;13.32;;
7255;SDS011;3669;49.200;9.242;2023-07-02T08:56:47;16.13;;;13.40;;
7255;SDS011;3669;49.200;9.242;2023-07-02T08:59:14;15.85;;;12.77;;
7255;SDS011;3669;49.200;9.242;2023-07-02T09:01:48;15.85;;;12.80;;
7255;SDS011;3669;49.200;9.242;2023-07-02T09:04:23;15.60;;;13.27;;
7255;SDS011;3669;49.200;9.242;2023-07-02T09:07:11;18.30;;;13.98;;
7255;SDS011;3669;49.200;9.242;2023-07-02T09:09:47;16.85;;;12.95;;
7255;SDS011;3669;49.200;9.242;2023-07-02T09:12:27;14.73;;;12.40;;
7255;SDS011;3669;49.200;9.242;2023-07-02T09:14:56;16.50;;;12.85;;
7255;SDS011;3669;49.200;9.242;2023-07-02T09:17:27;15.23;;;12.88;;
7255;SDS011;3669;49.200;9.242;2023-07-02T09:19:55;15.85;;;12.93;;
7255;SDS011;3669;49.200;9.242;2023-07-02T09:22:23;14.60;;;12.60;;
7255;SDS011;3669;49.200;9.242;2023-07-02T09:24:54;16.77;;;12.85;;
7255;SDS011;3669;49.200;9.242;2023-07-02T09:27:33;16.52;;;13.15;;
7255;SDS011;3669;49.200;9.242;2023-07-02T09:30:06;13.93;;;12.35;;
7255;SDS011;3669;49.200;9.242;2023-07-02T09:32:33;16.25;;;12.07;;
7255;SDS011;3669;49.200;9.242;2023-07-02T09:35:01;14.43;;;12.05;;
7255;SDS011;3669;49.200;9.242;2023-07-02T09:37:28;24.95;;;22.77;;
7255;SDS011;3669;49.200;9.242;2023-07-02T09:39:55;22.55;;;20.65;;
7255;SDS011;3669;49.200;9.242;2023-07-02T09:42:23;34.30;;;31.90;;
7255;SDS011;3669;49.200;9.242;2023-07-02T09:44:55;27.35;;;25.17;;
7255;SDS011;3669;49.200;9.242;2023-07-02T09:47:22;36.65;;;34.17;;
7255;SDS011;3669;49.200;9.242;2023-07-02T09:52:21;38.75;;;35.83;;
7255;SDS011;3669;49.200;9.242;2023-07-02T09:54:48;38.55;;;36.00;;
7255;SDS011;3669;49.200;9.242;2023-07-02T09:57:15;19.50;;;17.67;;
7255;SDS011;3669;49.200;9.242;2023-07-02T09:59:41;15.10;;;13.38;;
7255;SDS011;3669;49.200;9.242;2023-07-02T10:02:09;16.15;;;13.82;;
7255;SDS011;3669;49.200;9.242;2023-07-02T10:04:46;14.65;;;12.90;;
7255;SDS011;3669;49.200;9.242;2023-07-02T10:07:13;16.27;;;13.48;;
7255;SDS011;3669;49.200;9.242;2023-07-02T10:09:42;18.15;;;14.00;;
7255;SDS011;3669;49.200;9.242;2023-07-02T10:12:19;15.30;;;13.23;;
7255;SDS011;3669;49.200;9.242;2023-07-02T10:14:47;16.83;;;13.60;;
7255;SDS011;3669;49.200;9.242;2023-07-02T10:17:27;15.80;;;13.20;;
7255;SDS011;3669;49.200;9.242;2023-07-02T10:19:55;16.67;;;14.02;;
7255;SDS011;3669;49.200;9.242;2023-07-02T10:22:23;16.55;;;13.93;;
7255;SDS011;3669;49.200;9.242;2023-07-02T10:24:54;17.52;;;14.68;;
7255;SDS011;3669;49.200;9.242;2023-07-02T10:27:43;18.60;;;14.60;;
7255;SDS011;3669;49.200;9.242;2023-07-02T10:30:10;16.15;;;14.05;;
7255;SDS011;3669;49.200;9.242;2023-07-02T10:32:37;17.40;;;13.85;;
7255;SDS011;3669;49.200;9.242;2023-07-02T10:35:17;18.65;;;14.57;;
7255;SDS011;3669;49.200;9.242;2023-07-02T10:37:44;17.42;;;14.77;;
7255;SDS011;3669;49.200;9.242;2023-07-02T10:40:12;16.48;;;13.93;;
7255;SDS011;3669;49.200;9.242;2023-07-02T10:42:46;17.40;;;14.70;;
7255;SDS011;3669;49.200;9.242;2023-07-02T10:45:13;17.52;;;14.65;;
7255;SDS011;3669;49.200;9.242;2023-07-02T10:47:41;17.98;;;15.07;;
7255;SDS011;3669;49.200;9.242;2023-07-02T10:50:17;16.70;;;14.45;;
7255;SDS011;3669;49.200;9.242;2023-07-02T10:52:45;17.38;;;14.65;;
7255;SDS011;3669;49.200;9.242;2023-07-02T10:55:17;16.85;;;15.07;;
7255;SDS011;3669;49.200;9.242;2023-07-02T10:57:45;17.48;;;15.27;;
7255;SDS011;3669;49.200;9.242;2023-07-02T11:00:12;20.17;;;15.15;;
7255;SDS011;3669;49.200;9.242;2023-07-02T11:02:39;18.67;;;15.52;;
7255;SDS011;3669;49.200;9.242;2023-07-02T11:05:06;18.73;;;15.57;;
7255;SDS011;3669;49.200;9.242;2023-07-02T11:07:41;19.85;;;15.00;;
7255;SDS011;3669;49.200;9.242;2023-07-02T11:10:09;20.00;;;15.77;;
7255;SDS011;3669;49.200;9.242;2023-07-02T11:12:37;19.98;;;15.73;;
7255;SDS011;3669;49.200;9.242;2023-07-02T11:15:08;19.15;;;15.23;;
7255;SDS011;3669;49.200;9.242;2023-07-02T11:17:35;19.20;;;16.02;;
7255;SDS011;3669;49.200;9.242;2023-07-02T11:20:03;20.73;;;15.60;;
7255;SDS011;3669;49.200;9.242;2023-07-02T11:22:31;17.48;;;15.57;;
7255;SDS011;3669;49.200;9.242;2023-07-02T11:25:17;17.98;;;14.98;;
7255;SDS011;3669;49.200;9.242;2023-07-02T11:27:48;17.30;;;15.38;;
7255;SDS011;3669;49.200;9.242;2023-07-02T11:30:15;18.45;;;15.75;;
7255;SDS011;3669;49.200;9.242;2023-07-02T11:32:53;18.98;;;15.27;;
7255;SDS011;3669;49.200;9.242;2023-07-02T11:35:20;18.83;;;15.68;;
7255;SDS011;3669;49.200;9.242;2023-07-02T11:37:48;18.08;;;15.50;;
7255;SDS011;3669;49.200;9.242;2023-07-02T11:40:18;17.75;;;15.38;;
7255;SDS011;3669;49.200;9.242;2023-07-02T11:42:45;18.33;;;14.95;;
7255;SDS011;3669;49.200;9.242;2023-07-02T11:45:12;18.30;;;14.38;;
7255;SDS011;3669;49.200;9.242;2023-07-02T11:47:39;16.33;;;14.63;;
7255;SDS011;3669;49.200;9.242;2023-07-02T11:50:06;17.55;;;14.68;;
7255;SDS011;3669;49.200;9.242;2023-07-02T11:52:34;19.27;;;15.63;;
7255;SDS011;3669;49.200;9.242;2023-07-02T11:55:01;17.45;;;15.18;;
7255;SDS011;3669;49.200;9.242;2023-07-02T11:57:28;18.83;;;14.60;;
7255;SDS011;3669;49.200;9.242;2023-07-02T11:59:55;17.17;;;15.15;;
7255;SDS011;3669;49.200;9.242;2023-07-02T12:02:22;17.70;;;14.93;;
7255;SDS011;3669;49.200;9.242;2023-07-02T12:04:50;18.67;;;15.32;;
7255;SDS011;3669;49.200;9.242;2023-07-02T12:07:17;16.25;;;14.50;;
7255;SDS011;3669;49.200;9.242;2023-07-02T12:09:44;19.20;;;15.63;;
7255;SDS011;3669;49.200;9.242;2023-07-02T12:12:11;16.73;;;14.68;;
7255;SDS011;3669;49.200;9.242;2023-07-02T12:14:38;25.10;;;22.55;;
7255;SDS011;3669;49.200;9.242;2023-07-02T12:17:09;22.77;;;20.63;;
7255;SDS011;3669;49.200;9.242;2023-07-02T12:19:39;18.75;;;15.15;;
7255;SDS011;3669;49.200;9.242;2023-07-02T12:22:06;27.35;;;24.98;;
7255;SDS011;3669;49.200;9.242;2023-07-02T12:24:33;33.60;;;30.95;;
7255;SDS011;3669;49.200;9.242;2023-07-02T12:27:00;34.17;;;31.67;;
7255;SDS011;3669;49.200;9.242;2023-07-02T12:29:27;35.58;;;32.78;;
7255;SDS011;3669;49.200;9.242;2023-07-02T12:31:54;34.78;;;32.05;;
7255;SDS011;3669;49.200;9.242;2023-07-02T12:34:21;32.05;;;29.25;;
7255;SDS011;3669;49.200;9.242;2023-07-02T12:36:48;23.20;;;21.20;;
7255;SDS011;3669;49.200;9.242;2023-07-02T12:39:14;17.63;;;15.63;;
7255;SDS011;3669;49.200;9.242;2023-07-02T12:41:41;18.42;;;14.68;;
7255;SDS011;3669;49.200;9.242;2023-07-02T12:44:08;16.90;;;15.18;;
7255;SDS011;3669;49.200;9.242;2023-07-02T12:46:35;18.75;;;15.27;;
7255;SDS011;3669;49.200;9.242;2023-07-02T12:49:02;17.75;;;14.98;;
7255;SDS011;3669;49.200;9.242;2023-07-02T12:51:30;20.15;;;15.13;;
7255;SDS011;3669;49.200;9.242;2023-07-02T12:53:57;19.77;;;14.32;;
7255;SDS011;3669;49.200;9.242;2023-07-02T12:56:24;17.02;;;15.18;;
7255;SDS011;3669;49.200;9.242;2023-07-02T12:58:51;18.17;;;15.00;;
7255;SDS011;3669;49.200;9.242;2023-07-02T13:01:18;19.25;;;15.23;;
7255;SDS011;3669;49.200;9.242;2023-07-02T13:03:45;19.02;;;14.23;;
7255;SDS011;3669;49.200;9.242;2023-07-02T13:06:13;18.17;;;15.18;;
7255;SDS011;3669;49.200;9.242;2023-07-02T13:08:40;16.70;;;14.07;;
7255;SDS011;3669;49.200;9.242;2023-07-02T13:11:07;16.90;;;14.65;;
7255;SDS011;3669;49.200;9.242;2023-07-02T13:13:35;16.08;;;13.82;;
7255;SDS011;3669;49.200;9.242;2023-07-02T13:16:02;16.63;;;14.95;;
7255;SDS011;3669;49.200;9.242;2023-07-02T13:18:29;17.23;;;15.00;;
7255;SDS011;3669;49.200;9.242;2023-07-02T13:20:56;17.10;;;14.25;;
7255;SDS011;3669;49.200;9.242;2023-07-02T13:23:24;19.00;;;14.82;;
7255;SDS011;3669;49.200;9.242;2023-07-02T13:25:51;16.23;;;14.48;;
7255;SDS011;3669;49.200;9.242;2023-07-02T13:28:18;17.23;;;15.40;;
7255;SDS011;3669;49.200;9.242;2023-07-02T13:30:47;16.35;;;14.63;;
7255;SDS011;3669;49.200;9.242;2023-07-02T13:33:14;15.55;;;13.85;;
7255;SDS011;3669;49.200;9.242;2023-07-02T13:35:41;16.38;;;14.55;;
7255;SDS011;3669;49.200;9.242;2023-07-02T13:38:09;17.40;;;14.93;;
7255;SDS011;3669;49.200;9.242;2023-07-02T13:40:36;17.38;;;14.77;;
7255;SDS011;3669;49.200;9.242;2023-07-02T13:43:03;18.83;;;15.63;;
7255;SDS011;3669;49.200;9.242;2023-07-02T13:45:30;17.33;;;15.20;;
7255;SDS011;3669;49.200;9.242;2023-07-02T13:47:57;16.33;;;14.65;;
7255;SDS011;3669;49.200;9.242;2023-07-02T13:50:24;18.30;;;15.20;;
7255;SDS011;3669;49.200;9.242;2023-07-02T13:52:51;18.48;;;14.88;;
7255;SDS011;3669;49.200;9.242;2023-07-02T13:55:19;18.15;;;14.82;;
7255;SDS011;3669;49.200;9.242;2023-07-02T13:57:56;19.63;;;15.88;;
7255;SDS011;3669;49.200;9.242;2023-07-02T14:00:29;18.48;;;15.23;;
7255;SDS011;3669;49.200;9.242;2023-07-02T14:02:56;18.90;;;15.60;;
7255;SDS011;3669;49.200;9.242;2023-07-02T14:05:23;17.48;;;15.30;;
7255;SDS011;3669;49.200;9.242;2023-07-02T14:07:50;17.92;;;15.02;;
7255;SDS011;3669;49.200;9.242;2023-07-02T14:10:17;18.52;;;14.93;;
7255;SDS011;3669;49.200;9.242;2023-07-02T14:12:44;16.67;;;14.88;;
7255;SDS011;3669;49.200;9.242;2023-07-02T14:15:11;18.13;;;15.63;;
7255;SDS011;3669;49.200;9.242;2023-07-02T14:17:38;17.75;;;15.50;;
7255;SDS011;3669;49.200;9.242;2023-07-02T14:20:06;15.63;;;14.00;;
7255;SDS011;3669;49.200;9.242;2023-07-02T14:22:34;16.77;;;14.98;;
7255;SDS011;3669;49.200;9.242;2023-07-02T14:25:01;16.73;;;14.93;;
7255;SDS011;3669;49.200;9.242;2023-07-02T14:27:28;18.02;;;15.02;;
7255;SDS011;3669;49.200;9.242;2023-07-02T14:29:55;17.48;;;15.52;;
7255;SDS011;3669;49.200;9.242;2023-07-02T14:32:22;16.33;;;14.38;;
7255;SDS011;3669;49.200;9.242;2023-07-02T14:34:50;17.58;;;15.68;;
7255;SDS011;3669;49.200;9.242;2023-07-02T14:37:17;21.02;;;19.00;;
7255;SDS011;3669;49.200;9.242;2023-07-02T14:39:44;33.95;;;31.30;;
7255;SDS011;3669;49.200;9.242;2023-07-02T14:42:11;33.97;;;31.38;;
7255;SDS011;3669;49.200;9.242;2023-07-02T14:44:38;39.25;;;36.55;;
7255;SDS011;3669;49.200;9.242;2023-07-02T14:47:05;33.28;;;30.92;;
7255;SDS011;3669;49.200;9.242;2023-07-02T14:49:32;30.85;;;28.33;;
7255;SDS011;3669;49.200;9.242;2023-07-02T14:51:59;22.20;;;20.00;;
7255;SDS011;3669;49.200;9.242;2023-07-02T14:54:25;18.05;;;15.45;;
7255;SDS011;3669;49.200;9.242;2023-07-02T14:56:52;16.98;;;15.18;;
7255;SDS011;3669;49.200;9.242;2023-07-02T14:59:20;18.25;;;14.60;;
7255;SDS011;3669;49.200;9.242;2023-07-02T15:01:47;16.35;;;14.45;;
7255;SDS011;3669;49.200;9.242;2023-07-02T15:04:14;18.38;;;15.23;;
7255;SDS011;3669;49.200;9.242;2023-07-02T15:06:41;17.17;;;15.02;;
7255;SDS011;3669;49.200;9.242;2023-07-02T15:09:08;17.42;;;15.63;;
7255;SDS011;3669;49.200;9.242;2023-07-02T15:11:35;16.83;;;15.13;;